Time;durP1;ratioP1;P1;durP2;ratioP2;P2;SDS_P1;SDS_P2;PMS_P1;PMS_P2;Temp;Humidity;BMP_temperature;BMP_pressure;BME280_temperature;BME280_humidity;BME280_pressure;Samples;Min_cycle;Max_cycle;Signal;HPM_P1;HPM_P2
2021/09/18 00:00:46;;;;;;;2.50;1.75;;;12.80;99.90;;;;;;5031154;28;20128;-52
2021/09/18 00:03:13;;;;;;;2.60;2.03;;;12.80;99.90;;;;;;5025951;28;20042;-49
2021/09/18 00:05:39;;;;;;;1.98;1.50;;;12.80;99.90;;;;;;5027107;28;20017;-49
2021/09/18 00:08:05;;;;;;;2.92;1.90;;;12.90;99.90;;;;;;5030703;28;20082;-50
2021/09/18 00:10:31;;;;;;;2.38;1.63;;;12.80;99.90;;;;;;5027392;28;20086;-48
2021/09/18 00:12:56;;;;;;;1.83;1.73;;;12.90;99.90;;;;;;5021514;28;20171;-53
2021/09/18 00:15:22;;;;;;;2.88;2.00;;;12.90;99.90;;;;;;5030560;28;20030;-47
2021/09/18 00:17:48;;;;;;;3.38;1.80;;;12.80;99.90;;;;;;5021699;28;20033;-48
2021/09/18 00:20:13;;;;;;;3.55;2.00;;;12.80;99.90;;;;;;5030337;28;20035;-47
2021/09/18 00:22:39;;;;;;;2.95;2.08;;;12.80;99.90;;;;;;5022431;28;20117;-49
2021/09/18 00:25:05;;;;;;;3.63;2.30;;;12.80;99.90;;;;;;5029925;28;20487;-52
2021/09/18 00:27:31;;;;;;;3.42;2.33;;;12.80;99.90;;;;;;5011155;28;20037;-50
2021/09/18 00:29:56;;;;;;;4.88;2.22;;;12.80;99.90;;;;;;5025230;28;20029;-47
2021/09/18 00:32:22;;;;;;;3.55;2.30;;;12.80;99.90;;;;;;5018757;28;20108;-47
2021/09/18 00:34:47;;;;;;;3.65;3.20;;;12.80;99.90;;;;;;5028432;28;20105;-49
2021/09/18 00:37:13;;;;;;;3.30;2.50;;;12.90;99.90;;;;;;5022915;28;20364;-51
2021/09/18 00:39:38;;;;;;;4.82;3.10;;;12.90;99.90;;;;;;5027791;28;20175;-47
2021/09/18 00:42:04;;;;;;;5.80;3.33;;;12.90;99.90;;;;;;5012535;28;20075;-47
2021/09/18 00:44:30;;;;;;;3.65;3.13;;;12.90;99.90;;;;;;5029810;28;20029;-48
2021/09/18 00:46:55;;;;;;;5.55;3.30;;;12.80;99.90;;;;;;5025071;28;20032;-48
2021/09/18 00:49:21;;;;;;;2.85;2.55;;;12.90;99.90;;;;;;5029642;28;20503;-48
2021/09/18 00:51:48;;;;;;;4.82;3.38;;;12.80;99.90;;;;;;5030104;28;20029;-49
2021/09/18 00:54:14;;;;;;;5.10;3.20;;;12.90;99.90;;;;;;5024421;28;20501;-46
2021/09/18 00:56:41;;;;;;;4.07;3.67;;;12.80;99.90;;;;;;5020087;28;20060;-49
2021/09/18 00:59:07;;;;;;;3.85;3.45;;;12.80;99.90;;;;;;5027922;28;20450;-51
2021/09/18 01:01:33;;;;;;;4.85;3.85;;;12.80;99.90;;;;;;5008397;28;20037;-49
2021/09/18 01:04:00;;;;;;;6.20;4.15;;;12.80;99.90;;;;;;5028040;28;20025;-49
2021/09/18 01:06:28;;;;;;;7.13;4.22;;;12.80;99.90;;;;;;5029880;28;20026;-47
2021/09/18 01:08:56;;;;;;;4.70;4.20;;;12.80;99.90;;;;;;5018886;28;20112;-47
2021/09/18 01:11:22;;;;;;;4.97;4.07;;;12.80;99.90;;;;;;5003410;28;20518;-47
2021/09/18 01:13:47;;;;;;;6.07;4.00;;;12.80;99.90;;;;;;5007525;28;20061;-50
2021/09/18 01:16:13;;;;;;;4.22;3.83;;;12.80;99.90;;;;;;5022192;28;20110;-47
2021/09/18 01:18:38;;;;;;;5.10;4.15;;;12.80;99.90;;;;;;5029323;28;20175;-50
2021/09/18 01:21:04;;;;;;;4.65;3.88;;;12.80;99.90;;;;;;5021264;28;20018;-47
2021/09/18 01:23:29;;;;;;;4.93;4.15;;;12.80;99.90;;;;;;5018486;28;20037;-48
2021/09/18 01:25:55;;;;;;;6.13;4.78;;;12.80;99.90;;;;;;5029051;28;20040;-53
2021/09/18 01:28:23;;;;;;;4.32;3.90;;;12.80;99.90;;;;;;5029557;28;20395;-51
2021/09/18 01:30:50;;;;;;;5.43;4.75;;;12.80;99.90;;;;;;5014604;28;20135;-52
2021/09/18 01:33:15;;;;;;;4.95;4.45;;;12.80;99.90;;;;;;5029932;28;20061;-49
2021/09/18 01:35:41;;;;;;;4.68;4.03;;;12.80;99.90;;;;;;5027190;28;20061;-49
2021/09/18 01:38:07;;;;;;;6.38;4.20;;;12.80;99.90;;;;;;5021496;28;20106;-49
2021/09/18 01:40:42;;;;;;;6.25;4.50;;;12.80;99.90;;;;;;5028906;28;20535;-49
2021/09/18 01:43:08;;;;;;;6.07;5.40;;;12.80;99.90;;;;;;5029229;28;20376;-49
2021/09/18 01:45:35;;;;;;;5.70;4.63;;;12.80;99.90;;;;;;5019192;28;20089;-47
2021/09/18 01:48:03;;;;;;;6.25;4.55;;;12.80;99.90;;;;;;5018649;28;20021;-48
2021/09/18 01:50:31;;;;;;;5.13;4.40;;;12.80;99.90;;;;;;5010514;28;20025;-51
2021/09/18 01:53:00;;;;;;;5.93;4.90;;;12.80;99.90;;;;;;5020038;28;20059;-50
2021/09/18 01:55:26;;;;;;;6.47;5.82;;;12.80;99.90;;;;;;5029799;28;20114;-49
2021/09/18 01:57:54;;;;;;;6.95;5.90;;;12.80;99.90;;;;;;5032873;28;20522;-50
2021/09/18 02:00:20;;;;;;;5.82;4.97;;;12.80;99.90;;;;;;5021994;28;20029;-47
2021/09/18 02:02:46;;;;;;;7.35;5.70;;;12.80;99.90;;;;;;5015618;28;20455;-48
2021/09/18 02:05:14;;;;;;;6.97;5.97;;;12.80;99.90;;;;;;5033056;28;20025;-51
2021/09/18 02:07:39;;;;;;;7.80;5.90;;;12.80;99.90;;;;;;5033118;28;20040;-52
2021/09/18 02:10:09;;;;;;;7.80;6.03;;;12.90;99.90;;;;;;5032626;28;20052;-47
2021/09/18 02:12:35;;;;;;;7.10;6.13;;;12.90;99.90;;;;;;5032907;28;20036;-49
2021/09/18 02:15:01;;;;;;;7.65;6.10;;;12.90;99.90;;;;;;5032465;28;20029;-49
2021/09/18 02:17:27;;;;;;;8.30;6.75;;;12.80;99.90;;;;;;5032872;28;20098;-48
2021/09/18 02:19:52;;;;;;;10.10;6.25;;;12.80;99.90;;;;;;5020453;28;20472;-47
2021/09/18 02:22:18;;;;;;;6.82;6.10;;;12.80;99.90;;;;;;5044356;28;20032;-48
2021/09/18 02:24:43;;;;;;;8.00;5.95;;;12.80;99.90;;;;;;5052301;28;20025;-49
2021/09/18 02:27:09;;;;;;;7.90;6.95;;;12.70;99.90;;;;;;5052648;28;20525;-47
2021/09/18 02:29:35;;;;;;;8.35;6.57;;;12.70;99.90;;;;;;5052509;28;20086;-48
2021/09/18 02:32:00;;;;;;;10.88;6.60;;;12.70;99.90;;;;;;5030356;28;20040;-52
2021/09/18 02:34:26;;;;;;;8.27;6.65;;;12.70;99.90;;;;;;5035195;28;20030;-47
2021/09/18 02:36:52;;;;;;;8.95;6.30;;;12.70;99.90;;;;;;5050578;28;20108;-48
2021/09/18 02:39:17;;;;;;;8.40;6.85;;;12.70;99.90;;;;;;5052211;28;20029;-46
2021/09/18 02:41:43;;;;;;;8.75;7.00;;;12.70;99.90;;;;;;5052418;28;20506;-49
2021/09/18 02:44:08;;;;;;;10.40;6.80;;;12.70;99.90;;;;;;5066264;22;20382;-50
2021/09/18 02:46:34;;;;;;;7.30;6.45;;;12.70;99.90;;;;;;5031874;28;20034;-48
2021/09/18 02:48:59;;;;;;;8.60;6.85;;;12.70;99.90;;;;;;5014328;28;20083;-48
2021/09/18 02:51:25;;;;;;;8.70;6.68;;;12.70;99.90;;;;;;5032236;28;20032;-52
2021/09/18 02:53:51;;;;;;;8.02;6.63;;;12.70;99.90;;;;;;5032284;28;20116;-52
2021/09/18 02:56:16;;;;;;;9.10;6.43;;;12.70;99.90;;;;;;5032298;28;20072;-49
2021/09/18 02:58:42;;;;;;;9.85;6.40;;;12.70;99.90;;;;;;5032017;28;20033;-51
2021/09/18 03:01:07;;;;;;;8.95;7.05;;;12.70;99.90;;;;;;5032329;28;20675;-49
2021/09/18 03:03:33;;;;;;;10.13;6.47;;;12.70;99.90;;;;;;5014582;28;20021;-53
2021/09/18 03:05:58;;;;;;;9.25;7.03;;;12.70;99.90;;;;;;5032346;28;20026;-50
2021/09/18 03:08:24;;;;;;;8.18;5.60;;;12.70;99.90;;;;;;5030706;28;20029;-49
2021/09/18 03:10:51;;;;;;;8.02;5.82;;;12.70;99.90;;;;;;5031625;28;20506;-51
2021/09/18 03:13:17;;;;;;;8.50;6.15;;;12.70;99.90;;;;;;5031835;28;20013;-52
2021/09/18 03:15:42;;;;;;;8.45;5.80;;;12.70;99.90;;;;;;5031570;28;20036;-53
2021/09/18 03:18:08;;;;;;;6.65;5.57;;;12.70;99.90;;;;;;5031668;28;20052;-53
2021/09/18 03:20:33;;;;;;;7.50;5.88;;;12.80;99.90;;;;;;5031539;28;20094;-49
2021/09/18 03:22:59;;;;;;;8.50;6.32;;;12.80;99.90;;;;;;5031863;28;20021;-51
2021/09/18 03:25:25;;;;;;;8.63;6.05;;;12.80;99.90;;;;;;5031414;28;20026;-52
2021/09/18 03:27:50;;;;;;;8.35;6.47;;;12.80;99.90;;;;;;5031600;28;20033;-52
2021/09/18 03:30:16;;;;;;;8.05;5.75;;;12.80;99.90;;;;;;5031393;28;20511;-50
2021/09/18 03:32:41;;;;;;;10.05;5.90;;;12.80;99.90;;;;;;5031923;28;20029;-49
2021/09/18 03:35:08;;;;;;;8.52;6.22;;;12.90;99.90;;;;;;5031835;28;20036;-52
2021/09/18 03:37:36;;;;;;;7.82;5.88;;;12.90;99.90;;;;;;5031426;28;20025;-51
2021/09/18 03:40:05;;;;;;;7.60;6.28;;;12.90;99.90;;;;;;5013370;28;20029;-51
2021/09/18 03:42:31;;;;;;;6.75;6.05;;;12.80;99.90;;;;;;5013983;28;20017;-50
2021/09/18 03:44:56;;;;;;;7.65;5.90;;;12.90;99.90;;;;;;5031052;28;20105;-53
2021/09/18 03:47:22;;;;;;;7.22;5.63;;;12.90;99.90;;;;;;5013490;28;20022;-52
2021/09/18 03:49:47;;;;;;;6.70;5.65;;;12.90;99.90;;;;;;5031022;28;20030;-50
2021/09/18 03:52:13;;;;;;;8.25;5.75;;;12.90;99.90;;;;;;5013612;28;20060;-50
2021/09/18 03:54:39;;;;;;;6.38;5.38;;;12.90;99.90;;;;;;5030975;28;20057;-49
2021/09/18 03:57:04;;;;;;;7.88;4.85;;;12.90;99.90;;;;;;5031267;28;20029;-55
2021/09/18 03:59:30;;;;;;;6.30;5.57;;;13.00;99.90;;;;;;5030985;28;20021;-49
2021/09/18 04:01:55;;;;;;;8.20;6.57;;;13.00;99.90;;;;;;5013468;28;20018;-50
2021/09/18 04:04:21;;;;;;;9.05;5.70;;;13.00;99.90;;;;;;5031282;28;20052;-52
2021/09/18 04:06:48;;;;;;;6.28;5.68;;;13.00;99.90;;;;;;5031031;28;20503;-49
2021/09/18 04:09:14;;;;;;;6.70;5.82;;;13.00;99.90;;;;;;5030532;28;20037;-51
2021/09/18 04:11:39;;;;;;;7.22;5.63;;;13.00;99.90;;;;;;5030865;28;20025;-51
2021/09/18 04:14:05;;;;;;;6.88;6.18;;;13.00;99.90;;;;;;5030428;28;20796;-49
2021/09/18 04:16:31;;;;;;;6.90;6.20;;;13.00;99.90;;;;;;5030868;28;20025;-49
2021/09/18 04:18:56;;;;;;;6.28;5.15;;;13.00;99.90;;;;;;5030575;28;20567;-49
2021/09/18 04:21:22;;;;;;;7.97;6.45;;;13.00;99.90;;;;;;5030609;28;20025;-52
2021/09/18 04:23:48;;;;;;;8.98;6.65;;;13.00;99.90;;;;;;5030310;28;20112;-50
2021/09/18 04:26:14;;;;;;;7.35;6.25;;;13.00;99.90;;;;;;5030483;28;20377;-51
2021/09/18 04:28:40;;;;;;;7.28;6.00;;;13.00;99.90;;;;;;5030624;28;20024;-49
2021/09/18 04:31:05;;;;;;;6.82;5.88;;;13.00;99.90;;;;;;5030533;28;20021;-49
2021/09/18 04:33:31;;;;;;;7.30;5.97;;;13.00;99.90;;;;;;5030794;28;20399;-49
2021/09/18 04:35:56;;;;;;;6.90;5.88;;;13.10;99.90;;;;;;5030860;28;20068;-49
2021/09/18 04:38:22;;;;;;;6.88;6.00;;;13.10;99.90;;;;;;5012522;28;20381;-49
2021/09/18 04:40:48;;;;;;;7.57;5.30;;;13.10;99.90;;;;;;5030152;28;20460;-49
2021/09/18 04:43:13;;;;;;;6.53;5.05;;;13.10;99.90;;;;;;5030207;28;20075;-50
2021/09/18 04:45:39;;;;;;;8.00;5.65;;;13.10;99.90;;;;;;5012445;28;20029;-50
2021/09/18 04:48:05;;;;;;;6.05;5.45;;;13.10;99.90;;;;;;5030269;28;20099;-52
2021/09/18 04:50:30;;;;;;;6.53;5.80;;;13.10;99.90;;;;;;5029882;28;20515;-50
2021/09/18 04:52:56;;;;;;;7.68;5.32;;;13.10;99.90;;;;;;5012313;28;20061;-51
2021/09/18 04:55:21;;;;;;;6.15;5.53;;;13.10;99.90;;;;;;5012280;28;20028;-50
2021/09/18 04:57:47;;;;;;;4.97;4.43;;;13.10;99.90;;;;;;5030060;28;20037;-49
2021/09/18 05:00:12;;;;;;;6.53;5.75;;;13.20;99.90;;;;;;5012082;28;20487;-50
2021/09/18 05:02:38;;;;;;;8.73;5.63;;;13.20;99.90;;;;;;5030207;28;20109;-48
2021/09/18 05:05:05;;;;;;;5.47;4.97;;;13.20;99.90;;;;;;5030409;28;20032;-49
2021/09/18 05:07:30;;;;;;;6.63;5.05;;;13.20;99.90;;;;;;5030173;28;20041;-52
2021/09/18 05:09:57;;;;;;;5.78;5.18;;;13.20;99.90;;;;;;5029511;28;20553;-53
2021/09/18 05:12:23;;;;;;;7.90;5.32;;;13.20;99.90;;;;;;5012227;28;20127;-53
2021/09/18 05:14:48;;;;;;;8.27;5.50;;;13.20;99.90;;;;;;5029281;28;20040;-51
2021/09/18 05:17:14;;;;;;;7.30;5.25;;;13.20;99.90;;;;;;5029748;28;20462;-51
2021/09/18 05:19:40;;;;;;;5.78;4.85;;;13.30;99.90;;;;;;5029516;28;20025;-52
2021/09/18 05:22:06;;;;;;;5.72;4.60;;;13.30;99.90;;;;;;5029810;28;20033;-53
2021/09/18 05:24:31;;;;;;;5.20;4.47;;;13.30;99.90;;;;;;5011237;28;20137;-50
2021/09/18 05:26:57;;;;;;;7.35;4.88;;;13.30;99.90;;;;;;5012159;28;20025;-51
2021/09/18 05:29:23;;;;;;;5.63;4.57;;;13.30;99.90;;;;;;5029461;28;20391;-51
2021/09/18 05:31:49;;;;;;;7.72;5.20;;;13.30;99.90;;;;;;5032763;28;20075;-49
2021/09/18 05:34:15;;;;;;;6.80;4.38;;;13.30;99.90;;;;;;5033981;28;20087;-49
2021/09/18 05:36:40;;;;;;;4.70;4.30;;;13.30;99.90;;;;;;5033817;28;20484;-51
2021/09/18 05:39:06;;;;;;;3.75;3.38;;;13.30;99.90;;;;;;5015655;28;20064;-52
2021/09/18 05:41:32;;;;;;;5.78;5.18;;;13.30;99.90;;;;;;5033472;28;20026;-49
2021/09/18 05:43:57;;;;;;;6.28;4.90;;;13.30;99.90;;;;;;5033357;28;20029;-50
2021/09/18 05:46:23;;;;;;;5.97;4.38;;;13.30;99.90;;;;;;5033487;28;20099;-50
2021/09/18 05:48:49;;;;;;;5.00;4.30;;;13.30;99.90;;;;;;5033417;28;20034;-49
2021/09/18 05:51:14;;;;;;;4.75;4.25;;;13.30;99.90;;;;;;5032922;28;20033;-52
2021/09/18 05:53:40;;;;;;;3.95;3.53;;;13.30;99.90;;;;;;5033313;28;20040;-50
2021/09/18 05:56:05;;;;;;;4.75;4.00;;;13.30;99.90;;;;;;5033298;28;20040;-49
2021/09/18 05:58:31;;;;;;;5.28;3.63;;;13.40;99.90;;;;;;5033359;28;20018;-49
2021/09/18 06:00:57;;;;;;;6.93;4.57;;;13.40;99.90;;;;;;5015307;28;20029;-52
2021/09/18 06:03:22;;;;;;;5.90;4.75;;;13.40;99.90;;;;;;5033466;28;20021;-49
2021/09/18 06:05:48;;;;;;;5.65;4.57;;;13.40;99.90;;;;;;5033886;28;20029;-50
2021/09/18 06:08:13;;;;;;;4.45;4.05;;;13.40;99.90;;;;;;5032965;28;20072;-49
2021/09/18 06:10:39;;;;;;;5.72;4.47;;;13.50;99.90;;;;;;5032968;28;20021;-51
2021/09/18 06:13:04;;;;;;;6.18;5.18;;;13.50;99.90;;;;;;5033036;28;20065;-49
2021/09/18 06:15:31;;;;;;;5.55;4.95;;;13.50;99.90;;;;;;5032425;28;20029;-52
2021/09/18 06:17:56;;;;;;;5.72;4.65;;;13.50;99.90;;;;;;5033025;28;20061;-49
2021/09/18 06:20:22;;;;;;;5.60;4.80;;;13.50;99.90;;;;;;5032562;28;20057;-50
2021/09/18 06:22:48;;;;;;;7.93;4.88;;;13.50;99.90;;;;;;5032995;28;20033;-51
2021/09/18 06:25:13;;;;;;;5.70;5.03;;;13.60;99.90;;;;;;5032415;28;20025;-53
2021/09/18 06:27:40;;;;;;;5.68;5.00;;;13.60;99.90;;;;;;5032909;28;20430;-50
2021/09/18 06:30:08;;;;;;;5.47;3.88;;;13.70;99.90;;;;;;5032602;28;20108;-52
2021/09/18 06:32:33;;;;;;;6.50;4.28;;;13.70;99.90;;;;;;5033223;28;20064;-50
2021/09/18 06:34:59;;;;;;;4.28;3.88;;;13.80;99.90;;;;;;5032882;28;20029;-50
2021/09/18 06:37:24;;;;;;;4.53;3.97;;;13.80;99.90;;;;;;5032610;28;20026;-50
2021/09/18 06:39:50;;;;;;;6.03;4.15;;;13.80;99.90;;;;;;5032549;28;20021;-51
2021/09/18 06:42:16;;;;;;;4.32;3.92;;;13.90;99.90;;;;;;5032122;28;20032;-49
2021/09/18 06:44:41;;;;;;;4.40;3.75;;;13.90;99.90;;;;;;5014338;28;20551;-50
2021/09/18 06:47:07;;;;;;;4.22;3.40;;;13.90;99.90;;;;;;5032302;28;20021;-51
2021/09/18 06:49:33;;;;;;;4.45;3.75;;;14.00;99.90;;;;;;5031964;28;20037;-49
2021/09/18 06:51:59;;;;;;;8.23;4.10;;;14.00;99.90;;;;;;5032229;28;20488;-48
2021/09/18 06:54:24;;;;;;;3.47;3.05;;;14.10;99.90;;;;;;5032087;28;20032;-50
2021/09/18 06:56:50;;;;;;;4.40;3.33;;;14.10;99.90;;;;;;5032283;28;20028;-50
2021/09/18 06:59:15;;;;;;;3.78;3.30;;;14.10;99.90;;;;;;5032059;28;20424;-48
2021/09/18 07:01:41;;;;;;;3.58;2.92;;;14.20;99.90;;;;;;5032227;28;20391;-48
2021/09/18 07:04:07;;;;;;;3.47;2.70;;;14.20;99.90;;;;;;5032292;28;20025;-49
2021/09/18 07:06:32;;;;;;;4.60;2.38;;;14.20;99.90;;;;;;5032270;28;20029;-48
2021/09/18 07:08:58;;;;;;;3.25;2.95;;;14.30;99.90;;;;;;5031780;28;20044;-51
2021/09/18 07:11:23;;;;;;;5.88;3.13;;;14.30;99.90;;;;;;5014098;28;20407;-52
2021/09/18 07:13:49;;;;;;;2.65;2.20;;;14.40;99.90;;;;;;5013637;28;20124;-52
2021/09/18 07:16:14;;;;;;;2.90;2.20;;;14.50;99.90;;;;;;5031458;28;20025;-50
2021/09/18 07:18:40;;;;;;;2.58;2.22;;;14.50;99.90;;;;;;5031555;28;20794;-49
2021/09/18 07:21:05;;;;;;;4.30;2.10;;;14.60;99.90;;;;;;5013529;28;20060;-50
2021/09/18 07:23:31;;;;;;;2.30;2.05;;;14.60;99.90;;;;;;5031758;28;20022;-53
2021/09/18 07:25:57;;;;;;;3.45;2.35;;;14.70;99.90;;;;;;5031139;28;20021;-51
2021/09/18 07:28:22;;;;;;;2.97;1.65;;;14.70;99.90;;;;;;5014095;28;20104;-50
2021/09/18 07:30:48;;;;;;;3.17;2.10;;;14.80;99.90;;;;;;5031306;28;20029;-50
2021/09/18 07:33:13;;;;;;;2.38;2.00;;;14.80;99.90;;;;;;5031538;28;20091;-52
2021/09/18 07:35:39;;;;;;;2.80;1.88;;;14.90;99.90;;;;;;5031772;28;20033;-53
2021/09/18 07:38:05;;;;;;;2.72;2.03;;;15.00;99.90;;;;;;5031482;28;20442;-49
2021/09/18 07:40:32;;;;;;;2.08;1.88;;;15.00;99.90;;;;;;5013503;28;20495;-51
2021/09/18 07:42:59;;;;;;;2.17;1.60;;;15.10;99.90;;;;;;5013746;28;20056;-50
2021/09/18 07:45:24;;;;;;;1.60;1.50;;;15.10;99.90;;;;;;5013664;28;20104;-48
2021/09/18 07:47:50;;;;;;;2.00;1.40;;;15.20;99.90;;;;;;5031493;28;20440;-51
2021/09/18 07:50:16;;;;;;;1.83;1.55;;;15.30;99.90;;;;;;5030659;28;20030;-48
2021/09/18 07:52:41;;;;;;;2.08;1.88;;;15.30;99.90;;;;;;5031161;28;20183;-48
2021/09/18 07:55:09;;;;;;;1.42;1.33;;;15.40;99.90;;;;;;5030823;28;20040;-52
2021/09/18 07:57:34;;;;;;;3.80;1.65;;;15.50;99.90;;;;;;5012972;28;20036;-52
2021/09/18 08:00:00;;;;;;;2.08;1.45;;;15.60;99.90;;;;;;5030629;28;20029;-49
2021/09/18 08:02:26;;;;;;;1.60;1.50;;;15.70;99.90;;;;;;5031227;28;20025;-48
2021/09/18 08:04:52;;;;;;;3.60;1.85;;;15.70;99.90;;;;;;5031311;28;20075;-49
2021/09/18 08:07:21;;;;;;;1.67;1.40;;;15.80;99.90;;;;;;5031167;28;20037;-49
2021/09/18 08:09:48;;;;;;;1.67;1.55;;;15.80;99.90;;;;;;5030828;28;20296;-49
2021/09/18 08:12:14;;;;;;;3.25;1.42;;;15.80;99.90;;;;;;5013140;28;20192;-53
2021/09/18 08:14:40;;;;;;;1.77;1.33;;;15.90;99.90;;;;;;5030399;28;20112;-50
2021/09/18 08:17:05;;;;;;;2.70;1.70;;;15.90;99.90;;;;;;5030453;28;20029;-50
2021/09/18 08:19:31;;;;;;;3.47;1.58;;;16.00;99.90;;;;;;5012658;28;20104;-52
2021/09/18 08:21:58;;;;;;;1.52;1.40;;;16.00;99.90;;;;;;5030655;28;20026;-54
2021/09/18 08:24:23;;;;;;;1.60;1.40;;;16.10;99.90;;;;;;5030042;28;20017;-49
2021/09/18 08:26:49;;;;;;;4.65;1.42;;;16.30;99.90;;;;;;5012676;28;20029;-53
2021/09/18 08:29:14;;;;;;;1.27;1.17;;;16.30;99.90;;;;;;5030296;28;20025;-49
2021/09/18 08:31:40;;;;;;;2.33;1.58;;;16.30;99.90;;;;;;5030560;28;20025;-49
2021/09/18 08:34:06;;;;;;;1.15;1.05;;;16.30;99.90;;;;;;5015748;28;20035;-50
2021/09/18 08:36:32;;;;;;;1.10;1.00;;;16.40;99.90;;;;;;5042144;28;20028;-52
2021/09/18 08:38:57;;;;;;;1.00;0.80;;;16.30;99.90;;;;;;5049913;28;20036;-55
2021/09/18 08:41:24;;;;;;;3.85;1.63;;;16.40;99.90;;;;;;5050218;28;20021;-50
2021/09/18 08:43:49;;;;;;;2.28;1.13;;;16.40;99.90;;;;;;5050002;28;20056;-49
2021/09/18 08:46:18;;;;;;;1.90;0.93;;;16.40;99.90;;;;;;5050227;28;20479;-49
2021/09/18 08:48:45;;;;;;;1.25;1.10;;;16.50;99.90;;;;;;5325929;22;20045;-53
2021/09/18 08:51:11;;;;;;;0.88;0.88;;;16.40;99.90;;;;;;5029382;28;20126;-48
2021/09/18 08:53:37;;;;;;;1.38;0.95;;;16.40;99.90;;;;;;5030078;28;20491;-49
2021/09/18 08:56:04;;;;;;;2.75;0.95;;;16.40;99.90;;;;;;5011927;28;20029;-46
2021/09/18 08:58:29;;;;;;;2.65;1.17;;;16.40;99.90;;;;;;5012091;28;20032;-46
2021/09/18 09:00:57;;;;;;;1.05;0.95;;;16.40;99.90;;;;;;5029729;28;20026;-48
2021/09/18 09:03:36;;;;;;;1.33;1.23;;;16.20;99.90;;;;;;5029887;28;20118;-49
2021/09/18 09:06:04;;;;;;;1.90;0.90;;;16.10;99.90;;;;;;4996041;28;20026;-49
2021/09/18 09:08:29;;;;;;;1.58;1.02;;;16.20;99.90;;;;;;5030026;28;20037;-48
2021/09/18 09:10:55;;;;;;;1.05;1.00;;;16.20;99.90;;;;;;5029526;28;20022;-50
2021/09/18 09:13:22;;;;;;;1.52;0.93;;;16.20;99.90;;;;;;5012445;28;20502;-52
2021/09/18 09:15:51;;;;;;;2.08;1.48;;;16.30;99.90;;;;;;5029708;28;20025;-49
2021/09/18 09:18:17;;;;;;;1.52;1.10;;;16.40;99.90;;;;;;5029654;28;20033;-49
2021/09/18 09:20:43;;;;;;;1.42;1.08;;;16.40;99.90;;;;;;5029615;28;20399;-54
2021/09/18 09:23:20;;;;;;;0.73;0.73;;;16.50;99.90;;;;;;5029706;28;20030;-54
2021/09/18 09:25:51;;;;;;;1.73;1.17;;;16.40;99.90;;;;;;5011827;28;20110;-48
2021/09/18 09:28:30;;;;;;;1.65;1.05;;;16.40;99.90;;;;;;5029630;28;20024;-51
2021/09/18 09:31:08;;;;;;;1.40;1.10;;;16.50;99.90;;;;;;5011818;28;20026;-50
2021/09/18 09:33:35;;;;;;;1.20;1.08;;;16.50;99.90;;;;;;5029927;28;20048;-54
2021/09/18 09:36:15;;;;;;;1.40;1.10;;;16.60;99.90;;;;;;5029853;28;20083;-50
2021/09/18 09:38:53;;;;;;;1.20;0.98;;;16.80;99.90;;;;;;5029629;28;20446;-50
2021/09/18 09:41:34;;;;;;;1.20;0.93;;;16.90;99.90;;;;;;5029254;28;20018;-51
2021/09/18 09:44:07;;;;;;;1.33;0.80;;;16.90;99.90;;;;;;5029604;28;20511;-52
2021/09/18 09:46:32;;;;;;;1.45;0.93;;;16.80;99.90;;;;;;5029710;28;20032;-50
2021/09/18 09:49:04;;;;;;;1.50;1.20;;;16.80;99.90;;;;;;5029243;28;20041;-53
2021/09/18 09:51:29;;;;;;;2.00;1.10;;;16.90;99.90;;;;;;5029300;28;20079;-52
2021/09/18 09:54:18;;;;;;;2.42;1.23;;;16.80;99.90;;;;;;5029536;28;20033;-51
2021/09/18 09:56:43;;;;;;;0.95;0.82;;;16.80;99.90;;;;;;5029462;28;20402;-51
2021/09/18 09:59:09;;;;;;;3.78;1.50;;;16.80;99.90;;;;;;5011403;28;20017;-48
2021/09/18 10:01:35;;;;;;;3.28;1.17;;;16.70;99.90;;;;;;5029564;28;20076;-53
2021/09/18 10:04:02;;;;;;;1.58;1.17;;;16.60;99.90;;;;;;5029761;28;20091;-49
2021/09/18 10:06:28;;;;;;;1.67;1.58;;;16.50;99.90;;;;;;5029803;28;20025;-54
2021/09/18 10:08:56;;;;;;;1.67;1.00;;;16.40;99.90;;;;;;5029422;28;20029;-48
2021/09/18 10:11:22;;;;;;;3.78;1.58;;;16.30;99.90;;;;;;5029369;28;20045;-50
2021/09/18 10:13:48;;;;;;;1.15;1.05;;;16.20;99.90;;;;;;5029092;28;20487;-51
2021/09/18 10:16:16;;;;;;;1.50;1.40;;;16.10;99.90;;;;;;5029123;28;20052;-50
2021/09/18 10:18:42;;;;;;;1.20;1.13;;;16.10;99.90;;;;;;5015211;28;20022;-55
2021/09/18 10:23:52;;;;;;;4.03;1.30;;;16.10;99.90;;;;;;5033077;28;20040;-54
2021/09/18 10:26:18;;;;;;;2.60;1.58;;;16.10;99.90;;;;;;5032974;28;20021;-55
2021/09/18 10:28:46;;;;;;;2.08;1.23;;;16.10;99.90;;;;;;5032864;28;20108;-51
2021/09/18 10:31:15;;;;;;;2.80;1.42;;;16.10;99.90;;;;;;5032621;28;20056;-52
2021/09/18 10:33:46;;;;;;;1.63;1.33;;;16.20;99.90;;;;;;5033156;28;20032;-53
2021/09/18 10:36:30;;;;;;;1.90;1.42;;;16.10;99.90;;;;;;5033160;28;20037;-48
2021/09/18 10:39:18;;;;;;;1.17;1.00;;;16.10;99.90;;;;;;5032803;28;20029;-51
2021/09/18 10:41:45;;;;;;;1.88;1.30;;;16.20;99.90;;;;;;5032671;28;20476;-51
2021/09/18 10:44:13;;;;;;;1.83;1.33;;;16.20;99.90;;;;;;5015112;28;20384;-52
2021/09/18 10:46:47;;;;;;;4.32;1.90;;;16.20;99.90;;;;;;5032500;28;20112;-50
2021/09/18 10:52:14;;;;;;;;;;;16.10;99.90;;;;;;5032956;28;20767;-51
2021/09/18 10:55:02;;;;;;;1.30;1.20;;;16.00;99.90;;;;;;5032583;28;20008;-53
2021/09/18 10:57:51;;;;;;;1.30;1.20;;;16.00;99.90;;;;;;5031774;28;20506;-51
2021/09/18 11:00:19;;;;;;;2.25;1.35;;;16.10;99.90;;;;;;5031991;28;20100;-52
2021/09/18 11:02:57;;;;;;;5.43;1.50;;;16.10;99.90;;;;;;5032504;28;20495;-54
2021/09/18 11:05:22;;;;;;;4.07;1.58;;;16.20;99.90;;;;;;5032678;28;20022;-53
2021/09/18 11:07:59;;;;;;;1.92;1.13;;;16.20;99.90;;;;;;5032160;28;20220;-51
2021/09/18 11:10:24;;;;;;;3.38;1.38;;;16.20;99.90;;;;;;5031775;28;20069;-54
2021/09/18 11:13:08;;;;;;;1.35;1.27;;;16.10;99.90;;;;;;5032126;28;20125;-51
2021/09/18 11:15:40;;;;;;;1.67;1.20;;;16.10;99.90;;;;;;5031814;28;20021;-50
2021/09/18 11:18:30;;;;;;;2.33;1.38;;;16.20;99.90;;;;;;5031721;28;20120;-53
2021/09/18 11:21:07;;;;;;;1.67;1.20;;;16.10;99.90;;;;;;5031011;28;20049;-51
2021/09/18 11:23:44;;;;;;;1.85;0.90;;;16.10;99.90;;;;;;5031952;28;20022;-49
2021/09/18 11:26:35;;;;;;;1.55;0.88;;;16.10;99.90;;;;;;5031172;28;20021;-51
2021/09/18 11:29:09;;;;;;;1.67;1.20;;;16.10;99.90;;;;;;5030429;28;20068;-54
2021/09/18 11:31:40;;;;;;;1.58;1.42;;;16.10;99.90;;;;;;5031687;28;20026;-52
2021/09/18 11:34:06;;;;;;;1.73;1.05;;;16.20;99.90;;;;;;5031851;28;20030;-53
2021/09/18 11:36:46;;;;;;;3.15;1.50;;;16.20;99.90;;;;;;5031670;28;20140;-55
2021/09/18 11:39:12;;;;;;;1.98;1.15;;;16.30;99.90;;;;;;5031603;28;20365;-51
2021/09/18 11:41:37;;;;;;;2.50;1.05;;;16.40;99.90;;;;;;5031502;28;20188;-55
2021/09/18 11:44:10;;;;;;;4.75;1.75;;;16.40;99.90;;;;;;5031388;28;20663;-53
2021/09/18 11:46:37;;;;;;;1.83;1.42;;;16.50;99.90;;;;;;5031450;28;20025;-53
2021/09/18 11:49:04;;;;;;;3.30;1.33;;;16.60;99.90;;;;;;5030791;28;20040;-49
2021/09/18 11:51:30;;;;;;;2.75;1.83;;;16.60;99.90;;;;;;5031419;28;20022;-51
2021/09/18 11:54:05;;;;;;;2.55;1.23;;;16.70;99.90;;;;;;5031321;28;20044;-52
2021/09/18 11:56:31;;;;;;;2.30;1.33;;;16.70;99.90;;;;;;5031348;28;20033;-49
2021/09/18 11:59:10;;;;;;;1.30;1.20;;;16.70;99.90;;;;;;5031304;28;20029;-49
2021/09/18 12:01:36;;;;;;;2.42;1.55;;;16.90;99.90;;;;;;5031443;28;20073;-51
2021/09/18 12:04:02;;;;;;;2.53;1.50;;;16.90;99.90;;;;;;5031162;28;20511;-53
2021/09/18 12:06:29;;;;;;;2.05;1.38;;;16.90;99.90;;;;;;5031155;28;20487;-52
2021/09/18 12:08:55;;;;;;;2.33;1.30;;;17.00;99.90;;;;;;5030997;28;20029;-53
2021/09/18 12:11:22;;;;;;;1.92;1.50;;;17.00;99.90;;;;;;5030694;28;20029;-49
2021/09/18 12:13:50;;;;;;;2.90;1.13;;;17.10;99.90;;;;;;5030932;28;20022;-51
2021/09/18 12:16:18;;;;;;;1.17;1.08;;;17.10;99.90;;;;;;5030389;28;20029;-50
2021/09/18 12:18:49;;;;;;;1.50;1.20;;;17.20;99.90;;;;;;5030797;28;20029;-50
2021/09/18 12:21:26;;;;;;;3.97;0.95;;;17.30;99.90;;;;;;5030260;28;20018;-51
2021/09/18 12:23:58;;;;;;;2.83;0.95;;;17.30;99.90;;;;;;5012713;28;20099;-51
2021/09/18 12:26:25;;;;;;;1.40;1.30;;;17.30;99.90;;;;;;5030901;28;20049;-48
2021/09/18 12:29:06;;;;;;;3.97;1.40;;;17.40;99.90;;;;;;5030593;28;20022;-51
2021/09/18 12:31:32;;;;;;;2.22;1.30;;;17.50;99.90;;;;;;5012818;28;20024;-49
2021/09/18 12:34:07;;;;;;;2.95;1.42;;;17.50;99.90;;;;;;5030595;28;20030;-54
2021/09/18 12:36:32;;;;;;;3.13;1.20;;;17.50;99.90;;;;;;5030550;28;20021;-49
2021/09/18 12:38:58;;;;;;;1.75;1.00;;;17.50;99.90;;;;;;5030350;28;20029;-56
2021/09/18 12:41:30;;;;;;;1.30;1.20;;;17.50;99.90;;;;;;5030540;28;20053;-52
2021/09/18 12:44:00;;;;;;;1.30;1.00;;;17.50;99.90;;;;;;5030453;28;20492;-51
2021/09/18 12:46:28;;;;;;;3.38;1.52;;;17.40;99.90;;;;;;5030365;28;20441;-51
2021/09/18 12:48:59;;;;;;;1.50;1.02;;;17.40;99.90;;;;;;5029729;28;20104;-50
2021/09/18 12:51:26;;;;;;;2.38;1.42;;;17.40;99.90;;;;;;5030155;28;20383;-54
2021/09/18 12:53:54;;;;;;;2.63;1.67;;;17.50;99.90;;;;;;5030424;28;20546;-52